Time;durP1;ratioP1;P1;durP2;ratioP2;P2;SDS_P1;SDS_P2;PMS_P1;PMS_P2;Temp;Humidity;BMP_temperature;BMP_pressure;BME280_temperature;BME280_humidity;BME280_pressure;Samples;Min_cycle;Max_cycle;Signal;HPM_P1;HPM_P2
2023/02/28 00:00:16;;;;;;;12.95;8.27;;;2.60;99.90;;;;;;4986892;28;20054;-71
2023/02/28 00:02:43;;;;;;;12.10;8.38;;;2.60;99.90;;;;;;4990197;28;20026;-69
2023/02/28 00:05:11;;;;;;;15.40;9.68;;;2.60;99.90;;;;;;4993249;28;20054;-69
2023/02/28 00:07:37;;;;;;;16.00;9.05;;;2.60;99.90;;;;;;4989011;28;20491;-70
2023/02/28 00:10:09;;;;;;;14.15;8.73;;;2.60;99.90;;;;;;4989276;28;20033;-71
2023/02/28 00:12:36;;;;;;;12.48;9.25;;;2.60;99.90;;;;;;4990551;28;20517;-71
2023/02/28 00:15:05;;;;;;;18.52;9.05;;;2.60;99.90;;;;;;4988965;28;20056;-70
2023/02/28 00:17:31;;;;;;;14.73;9.10;;;2.60;99.90;;;;;;4990738;28;20026;-71
2023/02/28 00:19:56;;;;;;;14.25;9.75;;;2.50;99.90;;;;;;4992527;28;20447;-69
2023/02/28 00:22:25;;;;;;;17.38;10.07;;;2.60;99.90;;;;;;4985542;28;20053;-70
2023/02/28 00:24:51;;;;;;;13.82;9.20;;;2.50;99.90;;;;;;4990217;28;20110;-69
2023/02/28 00:27:16;;;;;;;15.90;8.38;;;2.60;99.90;;;;;;4993609;28;20106;-69
2023/02/28 00:29:42;;;;;;;16.05;9.85;;;2.50;99.90;;;;;;4989921;28;20037;-70
2023/02/28 00:32:08;;;;;;;12.43;9.10;;;2.50;99.90;;;;;;4989122;28;20507;-69
2023/02/28 00:34:37;;;;;;;15.52;9.57;;;2.50;99.90;;;;;;4991380;28;20497;-68
2023/02/28 00:37:05;;;;;;;14.80;10.50;;;2.50;99.90;;;;;;4990871;28;20109;-69
2023/02/28 00:39:31;;;;;;;15.68;10.52;;;2.50;99.90;;;;;;4987035;28;20443;-69
2023/02/28 00:41:57;;;;;;;14.82;10.23;;;2.50;99.90;;;;;;4990547;28;20062;-69
2023/02/28 00:44:22;;;;;;;12.77;9.68;;;2.50;99.90;;;;;;4987099;28;20483;-71
2023/02/28 00:46:48;;;;;;;17.48;11.13;;;2.50;99.90;;;;;;4984535;28;20092;-70
2023/02/28 00:49:13;;;;;;;17.95;10.75;;;2.40;99.90;;;;;;4989422;28;20031;-70
2023/02/28 00:51:39;;;;;;;20.10;10.27;;;2.40;99.90;;;;;;4983269;28;20038;-72
2023/02/28 00:54:05;;;;;;;16.00;10.60;;;2.40;99.90;;;;;;4990041;28;20034;-70
2023/02/28 00:56:30;;;;;;;23.05;12.10;;;2.40;99.90;;;;;;4988955;28;20058;-71
2023/02/28 00:58:56;;;;;;;18.00;11.40;;;2.30;99.90;;;;;;4983555;28;20113;-69
2023/02/28 01:01:22;;;;;;;17.67;11.75;;;2.30;99.90;;;;;;4988748;28;20038;-73
2023/02/28 01:03:47;;;;;;;25.23;13.98;;;2.30;99.90;;;;;;4986552;28;20026;-72
2023/02/28 01:06:13;;;;;;;20.23;12.30;;;2.30;99.90;;;;;;4991175;28;20061;-70
2023/02/28 01:08:39;;;;;;;18.08;12.90;;;2.30;99.90;;;;;;4986757;28;20034;-71
2023/02/28 01:11:14;;;;;;;18.80;12.52;;;2.30;99.90;;;;;;4989190;28;20528;-68
2023/02/28 01:13:41;;;;;;;20.60;12.85;;;2.30;99.90;;;;;;4986185;28;20081;-70
2023/02/28 01:16:07;;;;;;;26.15;12.90;;;2.30;99.90;;;;;;4990395;28;20031;-70
2023/02/28 01:18:33;;;;;;;23.83;14.27;;;2.30;99.90;;;;;;4989294;28;20029;-71
2023/02/28 01:21:14;;;;;;;25.48;13.60;;;2.30;99.90;;;;;;4985555;28;20042;-69
2023/02/28 01:23:41;;;;;;;22.60;13.18;;;2.30;99.90;;;;;;4981016;28;20097;-71
2023/02/28 01:26:10;;;;;;;22.48;12.73;;;2.20;99.90;;;;;;4984767;28;20030;-71
2023/02/28 01:28:36;;;;;;;21.75;12.55;;;2.30;99.90;;;;;;4985674;28;20686;-69
2023/02/28 01:31:02;;;;;;;26.17;14.73;;;2.20;99.90;;;;;;4985319;28;20031;-70
2023/02/28 01:33:28;;;;;;;26.35;14.30;;;2.20;99.90;;;;;;4978142;28;20119;-69
2023/02/28 01:36:06;;;;;;;23.27;12.88;;;2.20;99.90;;;;;;4983201;28;20041;-70
2023/02/28 01:38:33;;;;;;;23.48;14.25;;;2.20;99.90;;;;;;5017688;28;20049;-69
2023/02/28 01:40:58;;;;;;;22.55;12.73;;;2.10;99.90;;;;;;4983567;28;20030;-71
2023/02/28 01:43:31;;;;;;;20.85;12.65;;;2.10;99.90;;;;;;4984075;28;20506;-70
2023/02/28 01:45:58;;;;;;;22.70;12.40;;;2.10;99.90;;;;;;4977041;28;20023;-70
2023/02/28 01:48:31;;;;;;;21.13;12.27;;;2.10;99.90;;;;;;4984547;28;20119;-69
2023/02/28 01:51:01;;;;;;;23.13;12.38;;;2.10;99.90;;;;;;4986721;28;20056;-69
2023/02/28 01:53:32;;;;;;;21.58;12.73;;;2.10;99.90;;;;;;5005330;28;20542;-70
2023/02/28 01:55:58;;;;;;;18.38;12.10;;;2.10;99.90;;;;;;4991182;28;20552;-69
2023/02/28 01:58:24;;;;;;;23.23;12.73;;;2.00;99.90;;;;;;4984685;28;20030;-69
2023/02/28 02:00:50;;;;;;;20.15;13.05;;;2.00;99.90;;;;;;4986381;28;20065;-69
2023/02/28 02:03:21;;;;;;;23.17;13.25;;;2.00;99.90;;;;;;4981354;28;20092;-69
2023/02/28 02:05:47;;;;;;;21.75;12.85;;;2.00;99.90;;;;;;4982142;28;20054;-69
2023/02/28 02:08:24;;;;;;;24.25;13.95;;;2.00;99.90;;;;;;4978144;28;20026;-70
2023/02/28 02:10:58;;;;;;;25.58;12.98;;;1.90;99.90;;;;;;4986133;28;20034;-69
2023/02/28 02:13:55;;;;;;;22.50;13.13;;;2.00;99.90;;;;;;4981981;28;20081;-69
2023/02/28 02:16:34;;;;;;;21.67;13.50;;;1.90;99.90;;;;;;4981477;28;20038;-69
2023/02/28 02:19:27;;;;;;;26.45;13.38;;;1.90;99.90;;;;;;4988631;28;20023;-69
2023/02/28 02:21:52;;;;;;;;;;;1.90;99.90;;;;;;4986650;28;20042;-69
2023/02/28 02:24:55;;;;;;;21.92;12.93;;;1.80;99.90;;;;;;4985904;28;19910;-68
2023/02/28 02:27:25;;;;;;;20.55;12.50;;;1.80;99.90;;;;;;4988282;28;20478;-68
2023/02/28 02:30:25;;;;;;;22.30;12.60;;;1.90;99.90;;;;;;4981368;28;20105;-69
2023/02/28 02:33:26;;;;;;;21.30;11.98;;;1.80;99.90;;;;;;4979986;28;20031;-69
2023/02/28 02:36:22;;;;;;;21.90;11.98;;;1.70;99.90;;;;;;4969967;28;20522;-70
2023/02/28 02:39:03;;;;;;;20.08;12.73;;;1.80;99.90;;;;;;4983201;28;20051;-69
2023/02/28 02:41:52;;;;;;;24.08;13.95;;;1.80;99.90;;;;;;4986272;28;20023;-71
2023/02/28 02:44:22;;;;;;;21.92;13.48;;;1.80;99.90;;;;;;4981798;28;20575;-69
2023/02/28 02:46:53;;;;;;;22.52;12.90;;;1.70;99.90;;;;;;4984550;28;20027;-69
2023/02/28 02:49:24;;;;;;;22.92;12.98;;;1.70;99.90;;;;;;4983060;28;20031;-70
2023/02/28 02:51:53;;;;;;;21.88;13.15;;;1.70;99.90;;;;;;4983211;28;20509;-70
2023/02/28 02:54:28;;;;;;;19.85;12.68;;;1.60;99.90;;;;;;4985671;28;20030;-69
2023/02/28 02:57:01;;;;;;;20.13;12.27;;;1.60;99.90;;;;;;4984341;28;20023;-69
2023/02/28 02:59:28;;;;;;;19.80;13.15;;;1.60;99.90;;;;;;4986970;28;20076;-70
2023/02/28 03:02:03;;;;;;;20.17;11.48;;;1.60;99.90;;;;;;4980633;28;20470;-69
2023/02/28 03:04:34;;;;;;;23.88;12.30;;;1.60;99.90;;;;;;4979504;28;20027;-72
2023/02/28 03:07:00;;;;;;;16.48;11.15;;;1.60;99.90;;;;;;4984309;28;20030;-71
2023/02/28 03:09:26;;;;;;;15.32;11.27;;;1.60;99.90;;;;;;4984424;28;20439;-70
2023/02/28 03:11:55;;;;;;;22.23;13.10;;;1.60;99.90;;;;;;5017280;28;20096;-70
2023/02/28 03:14:50;;;;;;;23.02;11.68;;;1.60;99.90;;;;;;4981253;28;20026;-70
2023/02/28 03:17:43;;;;;;;21.02;11.52;;;1.60;99.90;;;;;;4955732;28;20449;-70
2023/02/28 03:20:33;;;;;;;19.98;11.63;;;1.50;99.90;;;;;;4982534;28;20058;-71
2023/02/28 03:23:14;;;;;;;16.85;11.85;;;1.60;99.90;;;;;;4981325;28;20077;-72
2023/02/28 03:26:02;;;;;;;17.13;11.02;;;1.60;99.90;;;;;;4989719;28;20031;-71
2023/02/28 03:28:32;;;;;;;21.02;10.85;;;1.70;99.90;;;;;;4982044;28;20018;-70
2023/02/28 03:31:12;;;;;;;18.52;10.93;;;1.60;99.90;;;;;;4994470;28;20041;-70
2023/02/28 03:34:19;;;;;;;15.30;10.73;;;1.60;99.90;;;;;;4989741;28;20067;-70
2023/02/28 03:36:49;;;;;;;18.30;10.75;;;1.60;99.90;;;;;;4987196;28;20033;-73
2023/02/28 03:39:19;;;;;;;17.05;11.77;;;1.60;99.90;;;;;;4988123;28;20042;-72
2023/02/28 03:41:54;;;;;;;20.38;12.02;;;1.50;99.90;;;;;;4989847;28;20030;-71
2023/02/28 03:44:52;;;;;;;17.65;12.38;;;1.60;99.90;;;;;;4989792;28;20054;-70
2023/02/28 03:47:38;;;;;;;15.88;10.82;;;1.60;99.90;;;;;;4986678;28;20035;-71
2023/02/28 03:50:07;;;;;;;21.10;10.60;;;1.60;99.90;;;;;;4985523;28;20045;-70
2023/02/28 03:52:42;;;;;;;17.13;10.68;;;1.60;99.90;;;;;;4991880;28;20543;-72
2023/02/28 03:55:11;;;;;;;18.30;11.27;;;1.60;99.90;;;;;;4992810;28;20070;-71
2023/02/28 03:58:04;;;;;;;20.17;12.45;;;1.60;99.90;;;;;;4988801;28;20387;-71
2023/02/28 04:00:37;;;;;;;20.88;12.25;;;1.60;99.90;;;;;;4985318;28;20033;-72
2023/02/28 04:03:03;;;;;;;18.35;11.65;;;1.60;99.90;;;;;;4987460;28;20486;-71
2023/02/28 04:05:29;;;;;;;17.45;11.05;;;1.60;99.90;;;;;;4985061;28;20029;-70
2023/02/28 04:08:06;;;;;;;20.10;10.68;;;1.70;99.90;;;;;;4983035;28;20033;-71
2023/02/28 04:10:32;;;;;;;19.83;11.60;;;1.70;99.90;;;;;;4981519;28;20041;-70
2023/02/28 04:12:58;;;;;;;19.67;10.95;;;1.70;99.90;;;;;;4992056;28;20053;-71
2023/02/28 04:15:24;;;;;;;17.73;10.60;;;1.70;99.90;;;;;;4987644;28;20486;-71
2023/02/28 04:17:50;;;;;;;20.38;10.95;;;1.70;99.90;;;;;;4992837;28;20386;-72
2023/02/28 04:20:16;;;;;;;21.58;11.10;;;1.70;99.90;;;;;;4989705;28;20031;-70
2023/02/28 04:22:41;;;;;;;18.52;11.73;;;1.60;99.90;;;;;;4993398;28;20038;-74
2023/02/28 04:25:07;;;;;;;17.48;11.10;;;1.60;99.90;;;;;;4984724;28;20639;-70
2023/02/28 04:27:33;;;;;;;22.88;11.73;;;1.60;99.90;;;;;;4981342;28;20382;-70
2023/02/28 04:29:59;;;;;;;18.73;11.65;;;1.60;99.90;;;;;;4985450;28;20113;-69
2023/02/28 04:32:25;;;;;;;20.08;12.63;;;1.60;99.90;;;;;;4985542;28;20554;-71
2023/02/28 04:34:51;;;;;;;18.98;11.32;;;1.60;99.90;;;;;;4991741;28;20044;-71
2023/02/28 04:37:16;;;;;;;20.27;12.52;;;1.50;99.90;;;;;;4984947;28;20631;-67
2023/02/28 04:39:43;;;;;;;18.13;11.60;;;1.50;99.90;;;;;;4993689;28;20128;-70
2023/02/28 04:42:09;;;;;;;19.27;11.80;;;1.50;99.90;;;;;;4985731;28;20024;-71
2023/02/28 04:44:35;;;;;;;19.17;10.57;;;1.50;99.90;;;;;;4985384;28;20080;-70
2023/02/28 04:47:00;;;;;;;19.48;11.85;;;1.50;99.90;;;;;;5012763;28;20413;-75
2023/02/28 04:49:26;;;;;;;19.75;11.25;;;1.50;99.90;;;;;;4985732;28;20029;-69
2023/02/28 04:51:52;;;;;;;18.67;11.27;;;1.50;99.90;;;;;;4987247;28;20038;-70
2023/02/28 04:54:18;;;;;;;21.35;12.57;;;1.50;99.90;;;;;;4992354;28;20022;-71
2023/02/28 04:56:44;;;;;;;20.60;11.77;;;1.50;99.90;;;;;;4982318;28;20091;-71
2023/02/28 04:59:09;;;;;;;20.17;11.43;;;1.50;99.90;;;;;;4989864;28;20098;-71
2023/02/28 05:01:36;;;;;;;20.52;11.48;;;1.50;99.90;;;;;;4981387;28;20559;-72
2023/02/28 05:04:03;;;;;;;18.10;11.07;;;1.50;99.90;;;;;;4986260;28;20027;-71
2023/02/28 05:06:30;;;;;;;20.40;12.18;;;1.40;99.90;;;;;;4982749;28;20034;-72
2023/02/28 05:08:56;;;;;;;19.58;11.23;;;1.40;99.90;;;;;;4985820;28;20467;-70
2023/02/28 05:11:26;;;;;;;18.00;10.88;;;1.40;99.90;;;;;;4990421;28;20473;-71
2023/02/28 05:13:53;;;;;;;18.83;11.35;;;1.40;99.90;;;;;;4984382;28;20035;-71
2023/02/28 05:16:19;;;;;;;17.52;11.43;;;1.30;99.90;;;;;;4989880;28;20038;-70
2023/02/28 05:18:45;;;;;;;19.17;11.30;;;1.30;99.90;;;;;;4981613;28;20023;-72
2023/02/28 05:21:40;;;;;;;18.83;11.82;;;1.30;99.90;;;;;;4985642;28;20065;-70
2023/02/28 05:24:11;;;;;;;23.45;12.18;;;1.30;99.90;;;;;;5008407;28;20034;-69
2023/02/28 05:26:39;;;;;;;21.98;10.68;;;1.30;99.90;;;;;;4984709;28;20117;-70
2023/02/28 05:29:05;;;;;;;21.33;11.50;;;1.30;99.90;;;;;;4984981;28;20026;-72
2023/02/28 05:31:31;;;;;;;21.83;10.90;;;1.20;99.90;;;;;;4982645;28;20035;-70
2023/02/28 05:33:57;;;;;;;24.50;12.70;;;1.20;99.90;;;;;;4987822;28;20034;-70
2023/02/28 05:36:23;;;;;;;17.85;10.32;;;1.20;99.90;;;;;;4986174;28;20041;-71
2023/02/28 05:38:50;;;;;;;19.77;10.63;;;1.10;99.90;;;;;;4989311;28;20039;-70
2023/02/28 05:41:16;;;;;;;19.45;10.98;;;1.10;99.90;;;;;;4983081;28;20062;-70
2023/02/28 05:43:42;;;;;;;17.15;10.65;;;1.00;99.90;;;;;;4987404;28;20092;-71
2023/02/28 05:46:10;;;;;;;22.70;10.40;;;1.10;99.90;;;;;;4983401;28;20445;-70
2023/02/28 05:48:37;;;;;;;18.08;9.88;;;1.10;99.90;;;;;;4980111;28;20070;-71
2023/02/28 05:51:04;;;;;;;20.80;11.05;;;1.10;99.90;;;;;;4985374;28;20038;-70
2023/02/28 05:53:31;;;;;;;18.50;10.18;;;1.10;99.90;;;;;;4984650;28;20390;-70
2023/02/28 05:55:57;;;;;;;18.80;10.10;;;1.10;99.90;;;;;;4987090;28;20038;-70
2023/02/28 05:58:23;;;;;;;16.02;9.35;;;1.10;99.90;;;;;;4985020;28;20027;-72
2023/02/28 06:00:49;;;;;;;16.15;9.75;;;1.00;99.90;;;;;;4982184;28;20034;-73
2023/02/28 06:03:15;;;;;;;17.50;11.02;;;1.00;99.90;;;;;;4983711;28;20415;-71
2023/02/28 06:05:40;;;;;;;21.95;10.65;;;1.00;99.90;;;;;;4988678;28;20026;-70
2023/02/28 06:08:07;;;;;;;16.23;10.18;;;1.10;99.90;;;;;;4986734;28;20029;-71
2023/02/28 06:10:36;;;;;;;15.48;8.52;;;1.00;99.90;;;;;;4989343;28;20034;-70
2023/02/28 06:13:03;;;;;;;18.23;10.40;;;1.10;99.90;;;;;;4983419;28;20062;-70
2023/02/28 06:15:29;;;;;;;17.02;9.23;;;1.00;99.90;;;;;;4985645;28;20073;-70
2023/02/28 06:17:58;;;;;;;22.20;10.15;;;1.10;99.90;;;;;;4980769;28;20555;-71
2023/02/28 06:20:25;;;;;;;16.65;9.23;;;1.10;99.90;;;;;;4981354;28;20066;-72
2023/02/28 06:22:51;;;;;;;17.50;8.77;;;1.10;99.90;;;;;;4984090;28;20482;-71
2023/02/28 06:25:17;;;;;;;18.10;9.02;;;1.10;99.90;;;;;;4980869;28;20025;-69
2023/02/28 06:27:43;;;;;;;20.58;9.32;;;1.10;99.90;;;;;;4984963;28;20598;-70
2023/02/28 06:30:11;;;;;;;14.27;8.82;;;1.10;99.90;;;;;;4981027;28;20039;-70
2023/02/28 06:32:36;;;;;;;16.05;9.00;;;1.10;99.90;;;;;;4989233;28;20383;-70
2023/02/28 06:35:03;;;;;;;15.65;9.38;;;1.10;99.90;;;;;;4981604;28;20039;-71
2023/02/28 06:37:30;;;;;;;16.35;8.52;;;1.10;99.90;;;;;;4981484;28;20027;-69
2023/02/28 06:39:55;;;;;;;21.98;8.27;;;1.10;99.90;;;;;;4979781;28;20027;-69
2023/02/28 06:42:28;;;;;;;15.80;8.38;;;1.00;99.90;;;;;;4983512;28;20399;-69
2023/02/28 06:44:57;;;;;;;;;;;1.10;99.90;;;;;;4978149;28;20052;-68
2023/02/28 06:47:23;;;;;;;15.98;8.00;;;1.00;99.90;;;;;;4983030;28;19910;-69
2023/02/28 06:49:49;;;;;;;13.38;8.30;;;1.10;99.90;;;;;;4982526;28;20080;-70
2023/02/28 06:52:15;;;;;;;12.63;7.78;;;1.20;99.90;;;;;;4984730;28;20022;-71
2023/02/28 06:54:41;;;;;;;14.55;7.82;;;1.20;99.90;;;;;;4985452;28;20038;-71
2023/02/28 06:57:07;;;;;;;13.13;8.10;;;1.20;99.90;;;;;;4982330;28;20741;-69
2023/02/28 06:59:32;;;;;;;11.82;8.20;;;1.20;99.90;;;;;;4980785;28;20027;-69
2023/02/28 07:01:58;;;;;;;17.02;8.07;;;1.10;99.90;;;;;;4982518;28;20019;-68
2023/02/28 07:04:24;;;;;;;17.85;8.25;;;1.20;99.90;;;;;;4987203;28;20026;-68
2023/02/28 07:06:49;;;;;;;17.63;7.80;;;1.20;99.90;;;;;;4988307;28;20448;-69
2023/02/28 07:09:15;;;;;;;13.68;7.63;;;1.20;99.90;;;;;;4984726;28;20022;-69
2023/02/28 07:11:42;;;;;;;13.73;7.25;;;1.20;99.90;;;;;;4985971;28;20053;-69
2023/02/28 07:14:08;;;;;;;12.85;7.15;;;1.20;99.90;;;;;;4989758;28;20044;-69
2023/02/28 07:16:35;;;;;;;15.23;7.13;;;1.20;99.90;;;;;;4983292;28;20072;-70
2023/02/28 07:19:01;;;;;;;15.32;7.70;;;1.10;99.90;;;;;;4985474;28;20068;-69
2023/02/28 07:21:26;;;;;;;14.40;7.30;;;1.10;99.90;;;;;;4983925;28;20039;-70
2023/02/28 07:23:52;;;;;;;21.08;7.85;;;1.20;99.90;;;;;;4986477;28;20056;-69
2023/02/28 07:26:20;;;;;;;12.00;6.50;;;1.20;99.90;;;;;;4985624;28;20026;-69
2023/02/28 07:28:47;;;;;;;17.65;7.22;;;1.20;99.90;;;;;;4989190;28;20022;-69
2023/02/28 07:31:13;;;;;;;12.68;6.75;;;1.20;99.90;;;;;;4989391;28;20019;-71
2023/02/28 07:33:40;;;;;;;12.15;6.55;;;1.30;99.90;;;;;;4988631;28;20029;-69
2023/02/28 07:36:09;;;;;;;10.07;6.95;;;1.30;99.90;;;;;;4992350;28;20079;-70
2023/02/28 07:38:36;;;;;;;10.93;6.35;;;1.30;99.90;;;;;;4981384;28;20046;-70
2023/02/28 07:41:05;;;;;;;12.82;7.07;;;1.30;99.90;;;;;;4986731;28;20030;-70
2023/02/28 07:43:34;;;;;;;14.85;7.40;;;1.30;99.90;;;;;;4982512;28;20534;-70
2023/02/28 07:46:08;;;;;;;11.05;6.63;;;1.40;99.90;;;;;;4986502;28;20023;-70
2023/02/28 07:48:34;;;;;;;11.65;7.28;;;1.30;99.90;;;;;;4978464;28;20569;-70
2023/02/28 07:51:00;;;;;;;11.63;7.13;;;1.40;99.90;;;;;;4987810;28;20444;-70
2023/02/28 07:53:27;;;;;;;12.23;6.40;;;1.40;99.90;;;;;;4988036;28;20038;-70
2023/02/28 07:55:57;;;;;;;12.90;6.25;;;1.50;99.90;;;;;;4978578;28;20050;-70
2023/02/28 07:58:23;;;;;;;12.30;7.03;;;1.50;99.90;;;;;;4983975;28;20035;-69
2023/02/28 08:00:53;;;;;;;10.25;5.78;;;1.50;99.90;;;;;;4981753;28;20041;-70
2023/02/28 08:03:20;;;;;;;10.20;5.70;;;1.60;99.90;;;;;;4987400;28;20031;-69
2023/02/28 08:05:47;;;;;;;11.27;6.00;;;1.60;99.90;;;;;;4980581;28;20034;-69
2023/02/28 08:08:14;;;;;;;11.98;6.10;;;1.70;99.90;;;;;;4980899;28;20505;-69
2023/02/28 08:10:39;;;;;;;9.35;5.50;;;1.80;99.90;;;;;;4991260;28;20493;-70
2023/02/28 08:13:05;;;;;;;9.45;5.28;;;2.00;99.90;;;;;;4981780;28;20026;-70
2023/02/28 08:15:31;;;;;;;10.23;4.63;;;2.10;99.90;;;;;;4986596;28;20510;-70
2023/02/28 08:17:56;;;;;;;14.75;5.60;;;2.20;99.90;;;;;;4990867;28;20072;-69
2023/02/28 08:20:23;;;;;;;9.15;5.47;;;2.40;99.90;;;;;;4985132;28;20021;-69
2023/02/28 08:22:49;;;;;;;8.73;4.70;;;2.50;99.90;;;;;;4986130;28;20490;-69
2023/02/28 08:25:14;;;;;;;9.40;4.90;;;2.60;99.90;;;;;;4986591;28;20094;-69
2023/02/28 08:27:40;;;;;;;8.48;4.50;;;2.70;99.90;;;;;;5003826;28;20049;-70
2023/02/28 08:30:06;;;;;;;8.02;4.43;;;2.90;99.90;;;;;;4989885;28;20037;-71
2023/02/28 08:32:33;;;;;;;8.15;4.25;;;3.00;99.90;;;;;;4991244;28;20106;-69
2023/02/28 08:34:59;;;;;;;6.97;4.80;;;2.90;99.90;;;;;;4988052;28;20035;-72
2023/02/28 08:37:25;;;;;;;5.50;4.03;;;3.00;99.90;;;;;;4988170;28;20034;-72
2023/02/28 08:39:51;;;;;;;6.38;4.05;;;3.30;99.90;;;;;;4988070;28;20405;-71
2023/02/28 08:42:16;;;;;;;8.25;4.45;;;3.20;99.90;;;;;;4981581;28;20422;-71
2023/02/28 08:44:42;;;;;;;4.20;3.40;;;3.40;99.90;;;;;;5001014;28;20119;-72
2023/02/28 08:47:08;;;;;;;6.72;3.53;;;3.40;99.90;;;;;;5009988;28;20486;-72
2023/02/28 08:49:33;;;;;;;8.93;3.47;;;3.50;99.90;;;;;;4993597;28;20029;-71
2023/02/28 08:51:59;;;;;;;4.43;2.70;;;3.50;99.90;;;;;;5006447;28;20075;-72
2023/02/28 08:54:25;;;;;;;4.15;3.00;;;3.70;99.90;;;;;;5000607;28;20017;-71
2023/02/28 08:56:50;;;;;;;5.68;3.22;;;3.70;99.90;;;;;;4998419;28;20034;-71
2023/02/28 08:59:16;;;;;;;3.63;3.00;;;3.70;99.90;;;;;;4992533;28;20030;-70
2023/02/28 09:01:43;;;;;;;5.38;2.50;;;3.90;99.90;;;;;;4979735;28;20487;-71
2023/02/28 09:04:10;;;;;;;5.22;3.10;;;4.00;99.90;;;;;;5001332;28;20022;-71
2023/02/28 09:06:36;;;;;;;5.07;2.50;;;4.20;99.90;;;;;;5000783;28;20020;-71
2023/02/28 09:09:04;;;;;;;4.43;2.60;;;4.30;99.90;;;;;;4993684;28;20662;-71
2023/02/28 09:11:30;;;;;;;3.15;2.10;;;4.40;99.90;;;;;;5002691;28;20387;-70
2023/02/28 09:13:55;;;;;;;3.60;2.65;;;4.50;99.90;;;;;;5000392;28;20042;-70
2023/02/28 09:16:21;;;;;;;6.15;2.50;;;4.50;99.90;;;;;;5016932;28;20040;-70
2023/02/28 09:18:47;;;;;;;4.65;2.28;;;4.50;99.90;;;;;;5001255;28;20049;-70
2023/02/28 09:21:15;;;;;;;4.38;2.47;;;4.40;99.90;;;;;;5006215;28;20036;-71
2023/02/28 09:23:43;;;;;;;5.00;2.47;;;4.40;99.90;;;;;;5010423;28;20035;-71
2023/02/28 09:26:13;;;;;;;4.05;2.78;;;4.60;99.90;;;;;;5003463;28;20374;-70
2023/02/28 09:28:39;;;;;;;4.43;2.08;;;4.80;99.90;;;;;;5000257;28;20390;-72
2023/02/28 09:31:05;;;;;;;2.97;2.28;;;4.90;99.90;;;;;;4993790;28;20022;-70
2023/02/28 09:33:30;;;;;;;3.17;2.20;;;4.80;99.90;;;;;;5014168;28;20118;-71
2023/02/28 09:36:01;;;;;;;2.17;1.98;;;4.80;99.90;;;;;;5016098;28;20848;-70
2023/02/28 09:38:27;;;;;;;4.57;2.35;;;4.90;99.90;;;;;;5008470;28;20069;-70
2023/02/28 09:40:55;;;;;;;2.67;2.25;;;5.00;99.90;;;;;;4998689;28;20033;-70
2023/02/28 09:43:26;;;;;;;2.95;1.95;;;5.00;99.90;;;;;;5003672;28;20166;-71
2023/02/28 09:45:59;;;;;;;4.32;2.25;;;5.10;99.90;;;;;;5002856;28;20121;-71
2023/02/28 09:48:31;;;;;;;2.67;2.05;;;5.20;99.90;;;;;;5004188;28;20101;-71
2023/02/28 09:51:03;;;;;;;3.50;2.20;;;5.10;99.90;;;;;;4989909;28;20776;-69
2023/02/28 09:53:34;;;;;;;4.32;2.17;;;5.10;99.90;;;;;;5004132;28;20030;-70
2023/02/28 09:56:13;;;;;;;5.38;2.33;;;5.20;99.90;;;;;;4998977;28;20037;-69
2023/02/28 09:58:58;;;;;;;3.45;2.35;;;5.30;99.90;;;;;;5015012;28;20038;-71
2023/02/28 10:01:36;;;;;;;4.35;1.98;;;5.40;99.90;;;;;;4986082;28;20026;-71
2023/02/28 10:04:16;;;;;;;2.97;2.10;;;5.30;99.90;;;;;;5006501;28;20462;-72
2023/02/28 10:06:50;;;;;;;4.80;2.33;;;5.40;99.90;;;;;;4994339;28;20823;-72
2023/02/28 10:09:22;;;;;;;2.60;2.13;;;5.50;99.90;;;;;;5002992;28;20063;-72
2023/02/28 10:11:51;;;;;;;3.75;2.45;;;5.70;99.90;;;;;;4996825;28;20018;-72
2023/02/28 10:14:20;;;;;;;4.63;2.38;;;6.00;99.90;;;;;;4993637;28;20401;-71
2023/02/28 10:17:01;;;;;;;10.55;2.70;;;6.20;99.90;;;;;;4995102;28;20026;-69
2023/02/28 10:19:48;;;;;;;5.35;2.30;;;6.30;99.90;;;;;;4995557;28;20062;-72
2023/02/28 10:22:45;;;;;;;5.07;1.77;;;6.40;99.90;;;;;;5013552;28;20034;-72
2023/02/28 10:25:37;;;;;;;2.35;1.40;;;6.20;99.90;;;;;;4990499;28;20116;-71
2023/02/28 10:28:12;;;;;;;2.88;1.90;;;5.90;99.90;;;;;;5012300;28;20042;-72
2023/02/28 10:30:51;;;;;;;2.65;0.98;;;5.90;99.40;;;;;;4991183;28;20042;-69
2023/02/28 10:33:22;;;;;;;1.92;1.50;;;5.90;99.60;;;;;;5008387;28;20014;-69
2023/02/28 10:35:48;;;;;;;2.80;1.63;;;6.00;99.90;;;;;;4991130;28;20035;-69
2023/02/28 10:38:23;;;;;;;2.85;1.80;;;5.80;99.70;;;;;;5000660;28;20031;-71
2023/02/28 10:40:48;;;;;;;2.50;1.80;;;5.80;99.70;;;;;;5001663;28;20164;-72
2023/02/28 10:43:14;;;;;;;2.65;1.60;;;5.90;97.50;;;;;;4995671;28;20140;-71
2023/02/28 10:46:00;;;;;;;3.08;1.75;;;5.90;99.60;;;;;;4989433;28;20034;-71
2023/02/28 10:48:36;;;;;;;1.98;1.75;;;5.90;98.10;;;;;;5003898;28;20022;-73
2023/02/28 10:51:03;;;;;;;2.40;1.80;;;5.80;99.10;;;;;;5018863;28;20016;-73
2023/02/28 10:53:34;;;;;;;3.53;1.90;;;6.00;99.90;;;;;;5002793;28;20026;-69
2023/02/28 10:56:08;;;;;;;4.70;2.03;;;6.20;99.10;;;;;;5014081;28;20037;-72
2023/02/28 10:58:57;;;;;;;4.28;1.83;;;6.20;99.80;;;;;;4996141;28;20029;-70
2023/02/28 11:01:38;;;;;;;3.72;2.05;;;6.30;98.60;;;;;;4999739;28;20024;-72
2023/02/28 11:04:32;;;;;;;2.55;1.73;;;6.20;98.70;;;;;;5020316;28;20026;-73
2023/02/28 11:07:20;;;;;;;3.85;2.10;;;6.30;98.40;;;;;;4997470;28;20479;-74
2023/02/28 11:09:55;;;;;;;2.15;1.80;;;6.30;97.50;;;;;;5017391;28;20838;-73
2023/02/28 11:12:32;;;;;;;1.80;1.70;;;6.40;97.60;;;;;;5014644;28;20024;-73
2023/02/28 11:15:02;;;;;;;3.03;1.92;;;6.40;98.90;;;;;;4990297;28;20125;-74
2023/02/28 11:17:31;;;;;;;2.15;1.92;;;6.40;97.70;;;;;;4995838;28;20022;-73
2023/02/28 11:20:03;;;;;;;2.15;1.90;;;6.30;98.10;;;;;;4998232;28;20037;-70
2023/02/28 11:22:35;;;;;;;3.75;2.00;;;6.50;99.20;;;;;;4991675;28;20471;-70
2023/02/28 11:25:07;;;;;;;2.03;1.83;;;6.70;99.90;;;;;;5004115;28;20027;-74
2023/02/28 11:27:33;;;;;;;3.38;2.20;;;6.60;96.60;;;;;;5006609;28;20087;-72
2023/02/28 11:30:00;;;;;;;4.15;2.08;;;6.60;98.10;;;;;;4991111;28;20027;-74
2023/02/28 11:32:28;;;;;;;2.17;1.83;;;6.70;98.00;;;;;;5005802;28;20030;-73
2023/02/28 11:35:16;;;;;;;3.55;2.05;;;6.80;99.90;;;;;;4996391;28;20099;-73
2023/02/28 11:37:42;;;;;;;2.70;1.95;;;6.90;99.80;;;;;;5001822;28;20045;-72
2023/02/28 11:40:34;;;;;;;2.90;1.80;;;6.90;98.80;;;;;;5003422;28;20018;-72
2023/02/28 11:43:31;;;;;;;4.18;1.90;;;6.90;98.20;;;;;;5001659;28;20031;-73
2023/02/28 11:46:24;;;;;;;3.38;2.03;;;6.80;98.50;;;;;;5024582;28;20138;-72
2023/02/28 11:49:20;;;;;;;2.10;1.63;;;6.80;97.90;;;;;;5004285;28;20109;-75
2023/02/28 11:51:52;;;;;;;2.78;1.75;;;6.60;96.40;;;;;;5006726;28;20030;-72
2023/02/28 11:54:48;;;;;;;2.67;1.83;;;6.80;99.90;;;;;;5012749;28;20026;-73
2023/02/28 11:57:43;;;;;;;2.00;1.80;;;7.00;97.50;;;;;;4998269;28;20150;-72
2023/02/28 12:00:32;;;;;;;3.00;1.85;;;7.10;99.90;;;;;;4995690;28;20022;-72
2023/02/28 12:03:10;;;;;;;4.75;2.10;;;7.00;99.30;;;;;;4994510;28;20109;-72
2023/02/28 12:06:05;;;;;;;2.78;2.20;;;7.10;98.80;;;;;;4995164;28;20024;-74
2023/02/28 12:09:09;;;;;;;3.88;1.77;;;6.90;97.30;;;;;;5013429;28;20073;-72
2023/02/28 12:11:53;;;;;;;3.55;2.28;;;7.20;98.50;;;;;;5025892;28;20033;-73
2023/02/28 12:14:22;;;;;;;4.07;2.20;;;7.10;98.50;;;;;;4994973;28;20040;-74
2023/02/28 12:17:09;;;;;;;2.88;1.98;;;7.30;99.30;;;;;;5007745;28;20115;-74
2023/02/28 12:19:55;;;;;;;3.10;2.10;;;7.20;96.00;;;;;;5010757;28;20032;-73
2023/02/28 12:22:47;;;;;;;3.70;2.30;;;7.00;97.60;;;;;;4994586;28;20037;-72
2023/02/28 12:25:12;;;;;;;4.10;2.60;;;6.90;98.10;;;;;;5015679;28;20469;-72
2023/02/28 12:27:42;;;;;;;5.47;2.33;;;6.70;98.30;;;;;;5006242;28;20034;-72
2023/02/28 12:30:23;;;;;;;5.43;2.15;;;6.90;98.30;;;;;;5010603;28;20054;-73
2023/02/28 12:32:55;;;;;;;2.58;2.20;;;6.90;99.10;;;;;;5008064;28;20563;-73
2023/02/28 12:35:31;;;;;;;2.75;2.30;;;6.70;97.70;;;;;;4994622;28;20039;-72
2023/02/28 12:38:19;;;;;;;3.45;2.50;;;6.80;99.30;;;;;;4998610;28;20381;-72
2023/02/28 12:41:04;;;;;;;3.13;2.55;;;6.70;99.00;;;;;;5005768;28;20172;-73
2023/02/28 12:43:40;;;;;;;2.47;2.25;;;6.70;99.40;;;;;;5004183;28;20071;-72
2023/02/28 12:46:29;;;;;;;2.95;2.50;;;6.80;99.60;;;;;;5003980;28;20157;-72
2023/02/28 12:49:01;;;;;;;3.97;2.58;;;6.90;99.10;;;;;;4994956;28;20026;-73
2023/02/28 12:51:28;;;;;;;3.38;2.53;;;6.80;97.30;;;;;;4985967;28;20030;-73
2023/02/28 12:54:08;;;;;;;5.05;2.55;;;6.70;99.80;;;;;;5017015;28;20018;-74
2023/02/28 12:56:36;;;;;;;7.03;2.60;;;6.60;98.30;;;;;;4984725;28;20137;-73
2023/02/28 12:59:25;;;;;;;5.20;2.30;;;6.60;99.00;;;;;;5002095;28;20018;-73
2023/02/28 13:02:33;;;;;;;3.15;2.67;;;6.70;97.90;;;;;;5000791;28;20551;-75
2023/02/28 13:05:10;;;;;;;3.10;2.08;;;6.80;98.90;;;;;;4972032;28;20039;-75
2023/02/28 13:07:51;;;;;;;3.53;2.47;;;6.80;99.50;;;;;;4990377;28;20086;-73
2023/02/28 13:10:18;;;;;;;44.70;4.80;;;6.80;99.00;;;;;;5009382;28;20054;-72